Time;durP1;ratioP1;P1;durP2;ratioP2;P2;SDS_P1;SDS_P2;PMS_P1;PMS_P2;Temp;Humidity;BMP_temperature;BMP_pressure;BME280_temperature;BME280_humidity;BME280_pressure;Samples;Min_cycle;Max_cycle;Signal;HPM_P1;HPM_P2
2022/09/10 00:01:30;;;;;;;1.43;1.33;;;;;;;;;;5049946;28;20198;-73
2022/09/10 00:03:56;;;;;;;1.67;1.57;;;;;;;;;;5049104;28;20263;-74
2022/09/10 00:06:26;;;;;;;1.43;1.33;;;;;;;;;;5049649;28;20283;-74
2022/09/10 00:08:56;;;;;;;2.70;1.60;;;;;;;;;;5049665;28;20213;-74
2022/09/10 00:11:23;;;;;;;1.50;1.40;;;;;;;;;;5052239;28;20235;-74
2022/09/10 00:13:50;;;;;;;1.40;1.33;;;;;;;;;;5053097;28;20209;-73
2022/09/10 00:16:18;;;;;;;1.13;1.10;;;;;;;;;;5052829;28;20210;-74
2022/09/10 00:18:46;;;;;;;1.23;1.13;;;;;;;;;;5052818;28;20206;-74
2022/09/10 00:21:15;;;;;;;1.57;1.47;;;;;;;;;;5052965;28;20263;-74
2022/09/10 00:23:44;;;;;;;1.43;1.33;;;;;;;;;;5052813;28;21232;-74
2022/09/10 00:26:14;;;;;;;1.40;1.30;;;;;;;;;;5066984;28;20234;-75
2022/09/10 00:28:42;;;;;;;1.67;1.57;;;;;;;;;;5052384;28;20209;-76
2022/09/10 00:31:09;;;;;;;1.90;1.80;;;;;;;;;;5053029;28;20233;-75
2022/09/10 00:33:37;;;;;;;1.27;1.20;;;;;;;;;;5053070;28;20202;-75
2022/09/10 00:36:04;;;;;;;1.50;1.40;;;;;;;;;;5052608;28;20263;-75
2022/09/10 00:38:31;;;;;;;1.03;1.00;;;;;;;;;;5052430;28;20600;-75
2022/09/10 00:41:03;;;;;;;1.73;1.63;;;;;;;;;;5052926;28;20268;-75
2022/09/10 00:46:31;;;;;;;1.80;1.70;;;;;;;;;;5072598;27;20565;-75
2022/09/10 00:49:01;;;;;;;1.23;1.23;;;;;;;;;;5067678;28;20204;-72
2022/09/10 00:51:30;;;;;;;1.20;1.20;;;;;;;;;;5067356;28;20219;-72
2022/09/10 00:53:57;;;;;;;1.33;1.23;;;;;;;;;;5067334;28;20233;-72
2022/09/10 00:56:24;;;;;;;2.50;1.63;;;;;;;;;;5067925;28;20258;-72
2022/09/10 00:58:51;;;;;;;1.43;1.33;;;;;;;;;;5067198;28;20592;-72
2022/09/10 01:01:18;;;;;;;1.60;1.50;;;;;;;;;;5067544;28;20683;-72
2022/09/10 01:03:46;;;;;;;1.50;1.40;;;;;;;;;;5067135;28;20220;-72
2022/09/10 01:06:13;;;;;;;1.60;1.33;;;;;;;;;;5067752;28;20617;-73
2022/09/10 01:08:40;;;;;;;1.30;1.20;;;;;;;;;;5067282;28;20259;-72
2022/09/10 01:11:17;;;;;;;1.40;1.30;;;;;;;;;;5066936;28;20201;-72
2022/09/10 01:13:54;;;;;;;1.50;1.40;;;;;;;;;;5067320;28;20212;-73
2022/09/10 01:16:28;;;;;;;1.70;1.60;;;;;;;;;;5067314;28;20208;-72
2022/09/10 01:19:03;;;;;;;1.57;1.47;;;;;;;;;;5066891;28;20209;-72
2022/09/10 01:21:32;;;;;;;1.13;1.13;;;;;;;;;;5053460;28;20204;-72
2022/09/10 01:24:27;;;;;;;1.37;1.23;;;;;;;;;;5067001;28;20202;-72
2022/09/10 01:27:30;;;;;;;1.17;1.17;;;;;;;;;;5067170;28;20202;-72
2022/09/10 01:30:04;;;;;;;1.43;1.33;;;;;;;;;;5052860;28;20201;-72
2022/09/10 01:32:35;;;;;;;1.37;1.27;;;;;;;;;;5067093;28;20689;-72
2022/09/10 01:35:08;;;;;;;1.93;1.83;;;;;;;;;;5066733;28;20202;-72
2022/09/10 01:37:36;;;;;;;1.40;1.30;;;;;;;;;;5066566;28;20728;-72
2022/09/10 01:40:04;;;;;;;2.07;1.73;;;;;;;;;;5066496;28;20292;-72
2022/09/10 01:42:31;;;;;;;1.83;1.67;;;;;;;;;;5066779;28;20263;-72
2022/09/10 01:45:00;;;;;;;1.30;1.20;;;;;;;;;;5066079;28;20233;-72
2022/09/10 01:47:37;;;;;;;1.50;1.40;;;;;;;;;;5066727;28;20205;-72
2022/09/10 01:50:13;;;;;;;1.60;1.50;;;;;;;;;;5066120;28;20197;-73
2022/09/10 01:52:46;;;;;;;1.40;1.30;;;;;;;;;;5066490;28;20197;-72
2022/09/10 01:55:22;;;;;;;1.47;1.37;;;;;;;;;;5066405;28;20209;-72
2022/09/10 01:57:54;;;;;;;1.87;1.30;;;;;;;;;;5052792;28;20206;-72
2022/09/10 02:00:24;;;;;;;1.43;1.33;;;;;;;;;;5053094;28;20285;-73
2022/09/10 02:02:57;;;;;;;1.50;1.40;;;;;;;;;;5052546;28;20738;-73
2022/09/10 02:05:25;;;;;;;1.27;1.27;;;;;;;;;;5052984;28;20316;-73
2022/09/10 02:07:57;;;;;;;1.20;1.20;;;;;;;;;;5039256;28;20283;-73
2022/09/10 02:10:24;;;;;;;1.53;1.43;;;;;;;;;;5053046;28;20198;-73
2022/09/10 02:12:51;;;;;;;1.43;1.33;;;;;;;;;;5052621;28;20590;-72
2022/09/10 02:15:18;;;;;;;1.53;1.47;;;;;;;;;;5052501;28;20198;-72
2022/09/10 02:17:47;;;;;;;1.37;1.27;;;;;;;;;;5052824;28;20201;-72
2022/09/10 02:20:15;;;;;;;1.27;1.17;;;;;;;;;;5052648;28;20206;-72
2022/09/10 02:22:46;;;;;;;1.40;1.33;;;;;;;;;;5052823;28;20694;-72
2022/09/10 02:25:13;;;;;;;1.70;1.60;;;;;;;;;;5052698;28;20271;-72
2022/09/10 02:27:42;;;;;;;1.20;1.20;;;;;;;;;;5052266;28;20752;-72
2022/09/10 02:30:10;;;;;;;1.53;1.43;;;;;;;;;;5052498;28;20236;-72
2022/09/10 02:32:36;;;;;;;1.43;1.43;;;;;;;;;;5052274;28;20212;-72
2022/09/10 02:35:05;;;;;;;1.43;1.37;;;;;;;;;;5052496;28;20259;-72
2022/09/10 02:37:32;;;;;;;1.80;1.70;;;;;;;;;;5052803;28;20194;-72
2022/09/10 02:39:59;;;;;;;1.50;1.40;;;;;;;;;;5051795;28;20599;-72
2022/09/10 02:42:26;;;;;;;1.70;1.60;;;;;;;;;;5052218;28;20649;-72
2022/09/10 02:44:53;;;;;;;1.57;1.47;;;;;;;;;;5051926;28;20241;-72
2022/09/10 02:47:20;;;;;;;1.37;1.27;;;;;;;;;;5052356;28;20731;-72
2022/09/10 02:49:46;;;;;;;1.80;1.70;;;;;;;;;;5051917;28;20684;-72
2022/09/10 02:52:14;;;;;;;1.50;1.40;;;;;;;;;;5052377;28;20213;-72
2022/09/10 02:54:41;;;;;;;1.13;1.13;;;;;;;;;;5051835;28;20209;-72
2022/09/10 02:57:08;;;;;;;1.53;1.43;;;;;;;;;;5051923;28;20762;-72
2022/09/10 02:59:35;;;;;;;1.37;1.27;;;;;;;;;;5051593;28;20216;-72
2022/09/10 03:02:02;;;;;;;1.53;1.43;;;;;;;;;;5051972;28;20198;-73
2022/09/10 03:04:29;;;;;;;1.20;1.20;;;;;;;;;;5052057;28;20202;-72
2022/09/10 03:06:56;;;;;;;1.30;1.20;;;;;;;;;;5051537;28;20283;-72
2022/09/10 03:09:27;;;;;;;1.83;1.73;;;;;;;;;;5050405;28;20210;-73
2022/09/10 03:11:54;;;;;;;1.63;1.53;;;;;;;;;;5051723;28;20252;-72
2022/09/10 03:14:23;;;;;;;2.80;1.77;;;;;;;;;;5051796;28;20209;-72
2022/09/10 03:16:50;;;;;;;1.10;1.10;;;;;;;;;;5051580;28;20286;-73
2022/09/10 03:19:16;;;;;;;1.33;1.30;;;;;;;;;;5051671;28;20206;-72
2022/09/10 03:21:46;;;;;;;1.50;1.40;;;;;;;;;;5051755;28;20206;-72
2022/09/10 03:24:13;;;;;;;1.50;1.40;;;;;;;;;;5051185;28;20210;-72
2022/09/10 03:26:42;;;;;;;1.70;1.60;;;;;;;;;;5051514;28;20229;-72
2022/09/10 03:29:08;;;;;;;1.17;1.17;;;;;;;;;;5051111;28;20267;-72
2022/09/10 03:31:35;;;;;;;1.60;1.50;;;;;;;;;;5051557;28;20204;-72
2022/09/10 03:34:02;;;;;;;1.10;1.10;;;;;;;;;;5051274;28;20230;-72
2022/09/10 03:36:30;;;;;;;2.33;1.80;;;;;;;;;;5051046;28;20672;-73
2022/09/10 03:38:57;;;;;;;1.53;1.43;;;;;;;;;;5050932;28;20264;-72
2022/09/10 03:41:25;;;;;;;1.70;1.60;;;;;;;;;;5051225;28;20233;-72
2022/09/10 03:43:53;;;;;;;1.40;1.30;;;;;;;;;;5051086;28;20285;-72
2022/09/10 03:46:20;;;;;;;1.50;1.40;;;;;;;;;;5051281;28;20261;-72
2022/09/10 03:48:47;;;;;;;1.50;1.40;;;;;;;;;;5050863;28;20692;-72
2022/09/10 03:51:14;;;;;;;1.50;1.40;;;;;;;;;;5050811;28;20260;-72
2022/09/10 03:53:42;;;;;;;1.47;1.47;;;;;;;;;;5051000;28;20197;-72
2022/09/10 03:56:09;;;;;;;1.23;1.20;;;;;;;;;;5050994;28;20209;-72
2022/09/10 03:58:36;;;;;;;1.80;1.70;;;;;;;;;;5050720;28;20217;-72
2022/09/10 04:01:04;;;;;;;1.73;1.53;;;;;;;;;;5050962;28;20271;-72
2022/09/10 04:03:31;;;;;;;1.80;1.70;;;;;;;;;;5050452;28;20592;-73
2022/09/10 04:05:58;;;;;;;1.23;1.13;;;;;;;;;;5050603;28;20221;-72
2022/09/10 04:08:25;;;;;;;1.73;1.37;;;;;;;;;;5050594;28;20202;-72
2022/09/10 04:10:52;;;;;;;1.60;1.50;;;;;;;;;;5050831;28;20255;-72
2022/09/10 04:13:18;;;;;;;1.70;1.60;;;;;;;;;;5050688;28;20201;-72
2022/09/10 04:15:45;;;;;;;1.23;1.20;;;;;;;;;;5050514;28;20214;-72
2022/09/10 04:18:14;;;;;;;1.60;1.47;;;;;;;;;;5050040;28;20236;-73
2022/09/10 04:20:41;;;;;;;1.70;1.60;;;;;;;;;;5050718;28;20260;-72
2022/09/10 04:23:07;;;;;;;1.40;1.30;;;;;;;;;;5050220;28;20636;-72
2022/09/10 04:25:34;;;;;;;1.67;1.57;;;;;;;;;;5050716;28;20283;-72
2022/09/10 04:28:01;;;;;;;1.73;1.60;;;;;;;;;;5050363;28;20206;-72
2022/09/10 04:30:28;;;;;;;1.20;1.20;;;;;;;;;;5050337;28;20709;-72
2022/09/10 04:32:55;;;;;;;2.90;2.20;;;;;;;;;;5046722;28;20198;-72
2022/09/10 04:35:25;;;;;;;2.03;1.67;;;;;;;;;;5050521;28;20197;-73
2022/09/10 04:37:52;;;;;;;1.27;1.20;;;;;;;;;;5049873;28;20206;-74
2022/09/10 04:40:19;;;;;;;1.50;1.40;;;;;;;;;;5049671;28;20593;-72
2022/09/10 04:42:45;;;;;;;1.30;1.20;;;;;;;;;;5050163;28;20641;-72
2022/09/10 04:45:12;;;;;;;1.40;1.40;;;;;;;;;;5036289;28;20615;-73
2022/09/10 04:47:39;;;;;;;1.87;1.77;;;;;;;;;;5049666;28;20293;-72
2022/09/10 04:50:07;;;;;;;1.80;1.70;;;;;;;;;;5049011;28;20197;-72
2022/09/10 04:52:36;;;;;;;1.90;1.80;;;;;;;;;;5048947;28;20201;-72
2022/09/10 04:55:03;;;;;;;1.57;1.47;;;;;;;;;;5049252;28;20288;-72
2022/09/10 04:57:30;;;;;;;1.80;1.70;;;;;;;;;;5048091;28;20251;-72
2022/09/10 04:59:57;;;;;;;2.07;1.97;;;;;;;;;;5049839;28;20206;-72
2022/09/10 05:02:23;;;;;;;1.63;1.53;;;;;;;;;;5049238;28;20213;-72
2022/09/10 05:04:50;;;;;;;1.57;1.47;;;;;;;;;;5049708;28;20201;-72
2022/09/10 05:07:17;;;;;;;1.60;1.50;;;;;;;;;;5050329;28;20317;-72
2022/09/10 05:09:45;;;;;;;1.47;1.37;;;;;;;;;;5050053;28;20206;-72
2022/09/10 05:12:12;;;;;;;1.60;1.50;;;;;;;;;;5049716;28;20204;-72
2022/09/10 05:14:38;;;;;;;1.67;1.57;;;;;;;;;;5048856;28;20202;-72
2022/09/10 05:17:05;;;;;;;1.60;1.50;;;;;;;;;;5049590;28;20202;-72
2022/09/10 05:19:32;;;;;;;1.70;1.60;;;;;;;;;;5049255;28;20201;-72
2022/09/10 05:21:59;;;;;;;1.60;1.50;;;;;;;;;;5049453;28;20198;-72
2022/09/10 05:24:26;;;;;;;2.10;1.90;;;;;;;;;;5049179;28;20209;-72
2022/09/10 05:26:55;;;;;;;1.23;1.17;;;;;;;;;;5046822;28;20224;-72
2022/09/10 05:29:22;;;;;;;1.47;1.37;;;;;;;;;;5048169;28;20206;-72
2022/09/10 05:31:49;;;;;;;1.70;1.60;;;;;;;;;;5043836;28;20198;-72
2022/09/10 05:34:16;;;;;;;1.53;1.43;;;;;;;;;;5052310;28;20628;-72
2022/09/10 05:36:42;;;;;;;1.60;1.50;;;;;;;;;;5050789;28;20727;-71
2022/09/10 05:39:09;;;;;;;2.63;2.10;;;;;;;;;;5051230;28;20673;-72
2022/09/10 05:41:36;;;;;;;1.40;1.30;;;;;;;;;;5051509;28;20202;-72
2022/09/10 05:44:04;;;;;;;1.50;1.40;;;;;;;;;;5050533;28;20281;-72
2022/09/10 05:46:32;;;;;;;2.10;1.90;;;;;;;;;;5046406;28;20305;-72
2022/09/10 05:48:58;;;;;;;2.27;2.17;;;;;;;;;;5043917;28;20242;-73
2022/09/10 05:51:28;;;;;;;2.10;2.00;;;;;;;;;;5053230;28;20194;-73
2022/09/10 05:53:55;;;;;;;1.80;1.70;;;;;;;;;;5051341;28;20198;-73
2022/09/10 05:56:22;;;;;;;2.03;1.37;;;;;;;;;;5051890;28;20202;-72
2022/09/10 05:58:48;;;;;;;2.37;1.80;;;;;;;;;;5052814;28;20252;-72
2022/09/10 06:01:16;;;;;;;1.43;1.33;;;;;;;;;;5050585;28;20206;-72
2022/09/10 06:03:43;;;;;;;2.20;1.73;;;;;;;;;;5052651;28;20202;-72
2022/09/10 06:06:10;;;;;;;1.70;1.60;;;;;;;;;;5053113;28;20237;-72
2022/09/10 06:08:38;;;;;;;2.07;1.90;;;;;;;;;;5052847;28;20205;-73
2022/09/10 06:11:06;;;;;;;1.80;1.70;;;;;;;;;;5053130;28;20202;-72
2022/09/10 06:13:33;;;;;;;1.90;1.80;;;;;;;;;;5052624;28;20236;-72
2022/09/10 06:16:00;;;;;;;1.90;1.73;;;;;;;;;;5052654;28;20699;-73
2022/09/10 06:18:30;;;;;;;1.47;1.37;;;;;;;;;;5052507;28;20752;-72
2022/09/10 06:21:08;;;;;;;2.50;2.30;;;;;;;;;;5050880;28;20198;-73
2022/09/10 06:23:35;;;;;;;1.60;1.50;;;;;;;;;;5052689;28;20206;-72
2022/09/10 06:26:03;;;;;;;1.60;1.50;;;;;;;;;;5052469;28;20787;-72
2022/09/10 06:28:31;;;;;;;1.20;1.20;;;;;;;;;;5052525;28;20209;-75
2022/09/10 06:30:58;;;;;;;2.03;1.93;;;;;;;;;;5052552;28;20194;-75
2022/09/10 06:33:25;;;;;;;1.80;1.70;;;;;;;;;;5052579;28;20656;-75
2022/09/10 06:35:54;;;;;;;1.57;1.47;;;;;;;;;;5050847;28;20260;-75
2022/09/10 06:38:20;;;;;;;1.90;1.80;;;;;;;;;;5051277;28;20252;-75
2022/09/10 06:40:53;;;;;;;1.67;1.57;;;;;;;;;;5052559;28;20212;-75
2022/09/10 06:43:20;;;;;;;1.77;1.67;;;;;;;;;;5051248;28;20290;-75
2022/09/10 06:45:48;;;;;;;1.90;1.80;;;;;;;;;;5050355;28;20316;-75
2022/09/10 06:48:17;;;;;;;2.17;1.83;;;;;;;;;;5051101;28;20202;-75
2022/09/10 06:50:50;;;;;;;1.97;1.77;;;;;;;;;;5050051;28;20680;-75
2022/09/10 06:53:20;;;;;;;2.20;2.00;;;;;;;;;;5048858;28;20259;-75
2022/09/10 06:55:47;;;;;;;2.10;1.90;;;;;;;;;;5050987;28;20668;-75
2022/09/10 06:58:14;;;;;;;1.90;1.80;;;;;;;;;;5052045;28;20636;-75
2022/09/10 07:00:41;;;;;;;1.87;1.77;;;;;;;;;;5050782;28;20213;-75
2022/09/10 07:03:08;;;;;;;1.80;1.70;;;;;;;;;;5051193;28;20206;-76
2022/09/10 07:05:35;;;;;;;1.67;1.57;;;;;;;;;;5051520;28;20208;-76
2022/09/10 07:08:03;;;;;;;2.20;2.00;;;;;;;;;;5050419;28;20612;-76
2022/09/10 07:10:32;;;;;;;1.70;1.60;;;;;;;;;;5049964;28;20633;-76
2022/09/10 07:12:59;;;;;;;2.40;2.20;;;;;;;;;;5050956;28;20205;-76
2022/09/10 07:15:27;;;;;;;2.07;1.87;;;;;;;;;;5050182;28;20205;-76
2022/09/10 07:17:54;;;;;;;1.90;1.80;;;;;;;;;;5051369;28;20284;-76
2022/09/10 07:20:22;;;;;;;1.80;1.70;;;;;;;;;;5050765;28;20202;-76
2022/09/10 07:22:51;;;;;;;1.70;1.60;;;;;;;;;;5037824;28;20692;-78
2022/09/10 07:25:18;;;;;;;1.43;1.37;;;;;;;;;;5051419;28;20233;-76
2022/09/10 07:27:46;;;;;;;2.30;2.10;;;;;;;;;;5051033;28;20249;-77
2022/09/10 07:30:15;;;;;;;1.77;1.67;;;;;;;;;;5051119;28;20206;-77
2022/09/10 07:32:42;;;;;;;1.87;1.77;;;;;;;;;;5051465;28;20198;-77
2022/09/10 07:35:09;;;;;;;1.60;1.50;;;;;;;;;;5045945;28;20429;-77
2022/09/10 07:37:38;;;;;;;1.80;1.70;;;;;;;;;;5050253;28;20202;-77
2022/09/10 07:40:05;;;;;;;1.70;1.60;;;;;;;;;;5050920;28;20202;-77
2022/09/10 07:42:32;;;;;;;2.07;1.90;;;;;;;;;;5051088;28;20202;-77
2022/09/10 07:45:00;;;;;;;1.60;1.50;;;;;;;;;;5050736;28;20234;-77
2022/09/10 07:47:27;;;;;;;2.10;2.00;;;;;;;;;;5051103;28;20233;-77
2022/09/10 07:49:55;;;;;;;2.17;2.00;;;;;;;;;;5050943;28;20210;-77
2022/09/10 07:52:22;;;;;;;2.30;1.77;;;;;;;;;;5050766;28;20566;-76
2022/09/10 07:54:49;;;;;;;2.07;1.87;;;;;;;;;;5050258;28;20206;-77
2022/09/10 07:57:16;;;;;;;2.17;2.07;;;;;;;;;;5049722;28;20205;-77
2022/09/10 07:59:43;;;;;;;2.57;2.47;;;;;;;;;;5050323;28;20710;-77
2022/09/10 08:02:14;;;;;;;2.30;2.10;;;;;;;;;;5051118;28;20206;-77
2022/09/10 08:04:40;;;;;;;2.57;2.40;;;;;;;;;;5049908;28;20210;-77
2022/09/10 08:07:07;;;;;;;2.37;2.23;;;;;;;;;;5050446;28;20225;-77
2022/09/10 08:09:34;;;;;;;2.17;2.07;;;;;;;;;;5036731;28;20202;-77
2022/09/10 08:12:01;;;;;;;2.27;2.07;;;;;;;;;;5051074;28;20209;-77
2022/09/10 08:14:27;;;;;;;2.23;2.13;;;;;;;;;;5050792;28;20206;-77
2022/09/10 08:16:54;;;;;;;3.07;2.07;;;;;;;;;;5050778;28;20696;-77
2022/09/10 08:19:23;;;;;;;2.93;2.00;;;;;;;;;;5049101;28;20583;-77
2022/09/10 08:21:50;;;;;;;3.10;2.23;;;;;;;;;;5050155;28;20225;-77
2022/09/10 08:24:17;;;;;;;2.13;2.03;;;;;;;;;;5050481;28;20205;-77
2022/09/10 08:26:44;;;;;;;2.47;2.37;;;;;;;;;;5050005;28;21117;-76
2022/09/10 08:29:11;;;;;;;2.13;2.03;;;;;;;;;;5050430;28;20216;-77
2022/09/10 08:31:38;;;;;;;2.30;2.20;;;;;;;;;;5050595;28;20206;-77
2022/09/10 08:34:05;;;;;;;2.13;2.03;;;;;;;;;;5049955;28;20202;-77
2022/09/10 08:36:33;;;;;;;2.10;2.00;;;;;;;;;;5050470;28;20284;-77
2022/09/10 08:39:00;;;;;;;2.70;2.53;;;;;;;;;;5050299;28;20205;-77
2022/09/10 08:41:45;;;;;;;2.77;2.57;;;;;;;;;;5050154;28;20691;-77
2022/09/10 08:44:16;;;;;;;2.70;2.50;;;;;;;;;;5050282;28;20288;-77
2022/09/10 08:46:47;;;;;;;3.17;2.50;;;;;;;;;;5048990;28;20201;-77
2022/09/10 08:49:18;;;;;;;2.70;2.50;;;;;;;;;;5050108;28;20229;-77
2022/09/10 08:51:50;;;;;;;2.23;2.13;;;;;;;;;;5050011;28;20209;-77
2022/09/10 08:54:19;;;;;;;2.50;2.30;;;;;;;;;;5050300;28;20216;-77
2022/09/10 08:56:47;;;;;;;3.10;2.80;;;;;;;;;;5050168;28;20205;-77
2022/09/10 08:59:21;;;;;;;2.43;2.23;;;;;;;;;;5050224;28;20206;-77
2022/09/10 09:01:51;;;;;;;3.20;3.00;;;;;;;;;;5050007;28;20710;-77
2022/09/10 09:04:22;;;;;;;2.80;2.60;;;;;;;;;;5050082;28;20213;-77
2022/09/10 09:06:52;;;;;;;2.83;2.33;;;;;;;;;;5051619;28;20221;-77
2022/09/10 09:09:20;;;;;;;2.80;2.60;;;;;;;;;;5054065;28;20198;-77
2022/09/10 09:11:53;;;;;;;2.87;2.60;;;;;;;;;;5053324;28;20263;-77
2022/09/10 09:14:35;;;;;;;2.90;2.70;;;;;;;;;;5085031;28;20213;-77
2022/09/10 09:17:23;;;;;;;2.43;2.33;;;;;;;;;;5050931;28;20212;-77
2022/09/10 09:19:58;;;;;;;2.70;2.50;;;;;;;;;;5053899;28;20212;-77
2022/09/10 09:22:33;;;;;;;2.80;2.60;;;;;;;;;;5042627;28;20205;-77
2022/09/10 09:25:02;;;;;;;2.17;2.07;;;;;;;;;;5053300;28;20201;-77
2022/09/10 09:27:32;;;;;;;3.20;2.83;;;;;;;;;;5048459;28;20666;-77
2022/09/10 09:30:02;;;;;;;2.05;1.95;;;;;;;;;;5047472;28;20251;-77
2022/09/10 09:32:31;;;;;;;3.63;2.85;;;;;;;;;;5052453;28;20696;-77
2022/09/10 09:35:05;;;;;;;3.00;2.80;;;;;;;;;;5050479;28;20631;-78
2022/09/10 09:37:36;;;;;;;2.72;2.53;;;;;;;;;;5050930;28;20688;-78
2022/09/10 09:40:12;;;;;;;2.65;2.45;;;;;;;;;;5051743;28;20206;-78
2022/09/10 09:42:45;;;;;;;3.03;2.72;;;;;;;;;;5052749;28;20277;-78
2022/09/10 09:45:22;;;;;;;3.63;3.25;;;;;;;;;;5052481;28;20284;-77
2022/09/10 09:47:51;;;;;;;3.05;2.85;;;;;;;;;;5052800;28;20218;-78
2022/09/10 09:50:18;;;;;;;2.75;2.55;;;;;;;;;;5053216;28;20240;-78
2022/09/10 09:52:47;;;;;;;3.47;3.15;;;;;;;;;;5053052;28;20202;-78
2022/09/10 09:55:23;;;;;;;3.10;2.83;;;;;;;;;;5053260;28;20566;-78
2022/09/10 09:58:12;;;;;;;2.33;2.13;;;;;;;;;;5053248;28;20202;-78
2022/09/10 10:00:39;;;;;;;2.67;2.47;;;;;;;;;;5051093;28;20205;-78
2022/09/10 10:03:14;;;;;;;3.22;2.90;;;;;;;;;;5035342;28;20202;-78
2022/09/10 10:05:42;;;;;;;3.10;2.83;;;;;;;;;;5052936;28;20591;-78
2022/09/10 10:08:27;;;;;;;2.58;2.40;;;;;;;;;;5052086;28;20725;-77
2022/09/10 10:10:54;;;;;;;4.10;3.80;;;;;;;;;;5052532;28;20193;-78
2022/09/10 10:13:22;;;;;;;3.13;2.83;;;;;;;;;;5053377;28;20599;-78
2022/09/10 10:15:49;;;;;;;2.83;2.63;;;;;;;;;;5050794;28;20232;-77
2022/09/10 10:18:30;;;;;;;2.80;2.60;;;;;;;;;;5050028;28;20318;-79
2022/09/10 10:21:18;;;;;;;3.40;3.13;;;;;;;;;;5040122;28;20202;-78
2022/09/10 10:23:47;;;;;;;2.90;2.70;;;;;;;;;;5052663;28;20208;-78
2022/09/10 10:26:29;;;;;;;2.83;2.63;;;;;;;;;;5052384;28;20213;-78
2022/09/10 10:28:59;;;;;;;2.90;2.70;;;;;;;;;;5085151;28;20367;-78
2022/09/10 10:31:35;;;;;;;2.70;2.50;;;;;;;;;;5052311;28;20255;-78
2022/09/10 10:34:18;;;;;;;2.58;2.38;;;;;;;;;;5049493;28;20252;-78
2022/09/10 10:36:52;;;;;;;2.70;2.50;;;;;;;;;;5050939;28;20213;-78
2022/09/10 10:39:25;;;;;;;2.60;2.40;;;;;;;;;;5084221;28;20210;-78
2022/09/10 10:42:03;;;;;;;3.13;2.88;;;;;;;;;;5050426;28;20206;-78
2022/09/10 10:44:42;;;;;;;3.88;3.55;;;;;;;;;;5051829;28;20225;-77
2022/09/10 10:47:24;;;;;;;2.92;2.72;;;;;;;;;;5051568;28;20201;-78
2022/09/10 10:49:59;;;;;;;3.03;2.75;;;;;;;;;;5051587;28;20206;-78
2022/09/10 10:52:32;;;;;;;3.20;2.85;;;;;;;;;;5051550;28;20202;-78
2022/09/10 10:55:11;;;;;;;2.65;2.55;;;;;;;;;;5051637;28;20202;-78
2022/09/10 10:57:50;;;;;;;3.17;2.97;;;;;;;;;;5052177;28;20209;-78
2022/09/10 11:00:19;;;;;;;3.78;3.33;;;;;;;;;;5051810;28;20213;-78
2022/09/10 11:02:49;;;;;;;2.67;2.47;;;;;;;;;;5038415;28;20201;-78
2022/09/10 11:05:25;;;;;;;2.85;2.65;;;;;;;;;;5051939;28;20715;-78
2022/09/10 11:07:52;;;;;;;3.15;2.95;;;;;;;;;;5038099;28;20727;-78
2022/09/10 11:10:24;;;;;;;2.83;2.70;;;;;;;;;;5051714;28;20251;-78
2022/09/10 11:12:56;;;;;;;3.05;2.85;;;;;;;;;;5051849;28;20201;-78
2022/09/10 11:15:29;;;;;;;2.83;2.63;;;;;;;;;;5051514;28;20208;-78
2022/09/10 11:18:01;;;;;;;3.38;3.17;;;;;;;;;;5052051;28;20204;-78
2022/09/10 11:20:31;;;;;;;3.42;3.22;;;;;;;;;;5051715;28;20198;-78
2022/09/10 11:23:05;;;;;;;3.55;3.25;;;;;;;;;;5051969;28;20194;-77
2022/09/10 11:25:39;;;;;;;2.95;2.72;;;;;;;;;;5051329;28;20275;-78
2022/09/10 11:28:11;;;;;;;3.15;2.95;;;;;;;;;;5051339;28;20218;-78
2022/09/10 11:30:45;;;;;;;3.22;2.80;;;;;;;;;;5051060;28;20951;-78
2022/09/10 11:33:17;;;;;;;2.88;2.67;;;;;;;;;;5051412;28;20201;-78
2022/09/10 11:35:47;;;;;;;2.70;2.50;;;;;;;;;;5051324;28;20337;-78
2022/09/10 11:38:19;;;;;;;3.33;3.13;;;;;;;;;;5051147;28;20233;-78
2022/09/10 11:40:51;;;;;;;2.90;2.70;;;;;;;;;;5051237;28;20263;-78
2022/09/10 11:43:26;;;;;;;3.80;2.35;;;;;;;;;;5051243;28;20707;-78
2022/09/10 11:45:55;;;;;;;3.38;3.08;;;;;;;;;;5049567;28;20780;-78
2022/09/10 11:48:27;;;;;;;2.92;2.72;;;;;;;;;;5051189;28;20611;-77
2022/09/10 11:50:57;;;;;;;3.10;2.90;;;;;;;;;;5051030;28;20299;-78
2022/09/10 11:53:24;;;;;;;2.95;2.75;;;;;;;;;;5051424;28;20213;-78
2022/09/10 11:56:10;;;;;;;2.95;2.75;;;;;;;;;;5049722;28;20209;-78
2022/09/10 11:58:45;;;;;;;3.30;3.10;;;;;;;;;;5050787;28;20194;-78
2022/09/10 12:01:15;;;;;;;3.17;2.97;;;;;;;;;;5051071;28;20233;-78
2022/09/10 12:04:00;;;;;;;3.08;2.88;;;;;;;;;;5050956;28;20201;-85
2022/09/10 12:06:32;;;;;;;2.65;2.50;;;;;;;;;;5050611;28;20692;-81
2022/09/10 12:09:08;;;;;;;3.15;2.95;;;;;;;;;;5049083;28;20315;-84
2022/09/10 12:11:42;;;;;;;3.58;3.28;;;;;;;;;;5050237;28;20258;-85
2022/09/10 12:14:15;;;;;;;3.03;2.83;;;;;;;;;;5047753;28;20213;-85
2022/09/10 12:16:45;;;;;;;3.10;2.90;;;;;;;;;;5041011;28;20684;-90
2022/09/10 12:19:20;;;;;;;2.80;2.60;;;;;;;;;;5050884;28;20259;-78
2022/09/10 12:21:50;;;;;;;3.25;3.05;;;;;;;;;;5050552;28;20204;-77
2022/09/10 12:24:29;;;;;;;3.08;2.88;;;;;;;;;;5050406;28;20217;-77
2022/09/10 12:26:58;;;;;;;5.03;3.63;;;;;;;;;;5050548;28;20197;-78
2022/09/10 12:29:40;;;;;;;3.45;3.03;;;;;;;;;;5050302;28;20229;-77
2022/09/10 12:32:31;;;;;;;2.90;2.70;;;;;;;;;;5049181;28;20201;-78
2022/09/10 12:35:46;;;;;;;2.95;2.75;;;;;;;;;;5050476;28;20202;-77
2022/09/10 12:38:52;;;;;;;2.90;2.70;;;;;;;;;;5050119;28;20241;-77
2022/09/10 12:42:01;;;;;;;4.10;3.15;;;;;;;;;;5050228;28;20206;-77
2022/09/10 12:44:55;;;;;;;3.25;2.20;;;;;;;;;;5050431;28;20230;-77
2022/09/10 12:47:49;;;;;;;3.10;2.90;;;;;;;;;;5050135;28;20681;-77
2022/09/10 12:50:28;;;;;;;2.88;2.67;;;;;;;;;;5050330;28;20205;-77
2022/09/10 12:53:12;;;;;;;2.60;2.40;;;;;;;;;;5050363;28;20676;-77
2022/09/10 12:55:44;;;;;;;4.97;3.08;;;;;;;;;;5047910;28;20286;-77
2022/09/10 12:58:20;;;;;;;3.55;3.30;;;;;;;;;;5050077;28;20197;-77
2022/09/10 13:01:02;;;;;;;3.60;3.40;;;;;;;;;;5050262;28;20221;-77
2022/09/10 13:03:29;;;;;;;2.70;2.50;;;;;;;;;;5050118;28;20216;-77
2022/09/10 13:05:58;;;;;;;4.45;2.95;;;;;;;;;;5049797;28;20228;-77
2022/09/10 13:08:27;;;;;;;3.30;3.10;;;;;;;;;;5050302;28;20221;-77
2022/09/10 13:11:12;;;;;;;2.80;2.60;;;;;;;;;;5049772;28;20271;-77
2022/09/10 13:13:42;;;;;;;2.85;2.65;;;;;;;;;;5050576;28;20256;-77
2022/09/10 13:16:14;;;;;;;2.85;2.65;;;;;;;;;;5049681;28;20209;-77
2022/09/10 13:18:40;;;;;;;3.45;3.20;;;;;;;;;;5049814;28;20204;-77
2022/09/10 13:21:46;;;;;;;3.45;3.25;;;;;;;;;;5049647;28;20664;-77
2022/09/10 13:24:38;;;;;;;3.85;3.15;;;;;;;;;;5043234;28;20668;-77
2022/09/10 13:27:19;;;;;;;2.97;2.80;;;;;;;;;;5050207;28;20621;-77
2022/09/10 13:29:51;;;;;;;3.33;2.90;;;;;;;;;;5049577;28;20226;-77
2022/09/10 13:32:26;;;;;;;3.25;2.95;;;;;;;;;;5050081;28;20213;-76
2022/09/10 13:35:22;;;;;;;3.00;2.75;;;;;;;;;;5048363;28;20198;-77
2022/09/10 13:38:02;;;;;;;3.40;3.10;;;;;;;;;;5040708;28;20640;-76
2022/09/10 13:40:57;;;;;;;3.60;2.95;;;;;;;;;;5048617;28;20651;-77
2022/09/10 13:43:38;;;;;;;3.05;2.85;;;;;;;;;;5049106;28;20206;-76
2022/09/10 13:46:13;;;;;;;7.82;3.22;;;;;;;;;;5039814;28;20229;-76
2022/09/10 13:48:44;;;;;;;4.03;3.03;;;;;;;;;;5049664;28;20288;-76
2022/09/10 13:51:17;;;;;;;3.28;2.90;;;;;;;;;;5049487;28;20194;-76
2022/09/10 13:53:45;;;;;;;3.20;2.97;;;;;;;;;;5052598;28;20228;-76
2022/09/10 13:56:16;;;;;;;3.35;3.05;;;;;;;;;;5053365;28;20237;-76
2022/09/10 13:58:47;;;;;;;2.50;2.40;;;;;;;;;;5053657;28;20212;-76
2022/09/10 14:01:16;;;;;;;3.05;2.85;;;;;;;;;;5052927;28;20209;-76
2022/09/10 14:03:44;;;;;;;2.55;2.40;;;;;;;;;;5053390;28;20213;-77
2022/09/10 14:06:15;;;;;;;2.90;2.70;;;;;;;;;;5039066;28;20289;-76
2022/09/10 14:08:48;;;;;;;3.88;2.70;;;;;;;;;;5053026;28;20224;-76
2022/09/10 14:11:18;;;;;;;3.47;3.17;;;;;;;;;;5052964;28;20205;-77
2022/09/10 14:13:47;;;;;;;3.30;3.05;;;;;;;;;;5053022;28;20210;-76
2022/09/10 14:16:20;;;;;;;3.58;2.80;;;;;;;;;;5052759;28;20293;-76
2022/09/10 14:18:49;;;;;;;2.72;2.50;;;;;;;;;;5053241;28;20213;-77
2022/09/10 14:21:18;;;;;;;4.70;2.95;;;;;;;;;;5052282;28;20201;-77
2022/09/10 14:23:46;;;;;;;2.60;2.40;;;;;;;;;;5053392;28;20201;-76
2022/09/10 14:26:16;;;;;;;2.58;2.38;;;;;;;;;;5052697;28;20206;-76
2022/09/10 14:28:50;;;;;;;2.50;2.30;;;;;;;;;;5052632;28;20712;-76
2022/09/10 14:31:30;;;;;;;2.53;2.33;;;;;;;;;;5052224;28;20302;-76
2022/09/10 14:33:58;;;;;;;2.72;2.53;;;;;;;;;;5052856;28;20201;-76
2022/09/10 14:36:33;;;;;;;2.72;2.53;;;;;;;;;;5052505;28;20676;-76
2022/09/10 14:39:05;;;;;;;2.55;2.33;;;;;;;;;;5052105;28;20209;-76
2022/09/10 14:41:33;;;;;;;2.97;2.78;;;;;;;;;;5052153;28;20206;-76
2022/09/10 14:44:14;;;;;;;4.05;2.92;;;;;;;;;;5052332;28;20209;-76
2022/09/10 14:46:53;;;;;;;2.53;2.33;;;;;;;;;;5052020;28;20213;-76
2022/09/10 14:49:28;;;;;;;2.40;2.20;;;;;;;;;;5052057;28;20229;-77
2022/09/10 14:51:57;;;;;;;2.80;2.60;;;;;;;;;;5052054;28;20201;-76
2022/09/10 14:54:24;;;;;;;2.80;2.60;;;;;;;;;;5052323;28;20215;-76
2022/09/10 14:56:51;;;;;;;3.85;3.55;;;;;;;;;;5052130;28;20285;-76
2022/09/10 14:59:23;;;;;;;4.03;3.63;;;;;;;;;;5052183;28;20245;-76
2022/09/10 15:01:51;;;;;;;2.72;2.53;;;;;;;;;;5052087;28;20194;-76
2022/09/10 15:04:22;;;;;;;3.10;2.90;;;;;;;;;;5052233;28;20213;-76
2022/09/10 15:06:51;;;;;;;2.45;2.30;;;;;;;;;;5051829;28;20213;-76
2022/09/10 15:09:17;;;;;;;2.97;2.78;;;;;;;;;;5052137;28;20237;-76